Time;durP1;ratioP1;P1;durP2;ratioP2;P2;SDS_P1;SDS_P2;PMS_P1;PMS_P2;Temp;Humidity;BMP_temperature;BMP_pressure;BME280_temperature;BME280_humidity;BME280_pressure;Samples;Min_cycle;Max_cycle;Signal;HPM_P1;HPM_P2
2022/07/06 15:24:46;;;;;;;5.72;1.98;;;;;;;24.91;32.05;102219.53;5848114;23;19917;-69
2022/07/06 15:27:17;;;;;;;3.90;1.40;;;;;;;25.47;32.03;102212.22;5034834;29;20054;-76
2022/07/06 15:29:52;;;;;;;6.22;1.70;;;;;;;25.12;32.66;102215.75;5007669;29;20038;-74
2022/07/06 15:32:23;;;;;;;4.60;2.03;;;;;;;24.71;33.70;102218.75;5043830;29;20034;-79
2022/07/06 15:34:54;;;;;;;5.55;1.73;;;;;;;24.71;33.77;102209.84;5030519;29;20482;-72
2022/07/06 15:37:26;;;;;;;4.07;1.92;;;;;;;24.11;34.54;102213.59;5043797;29;20545;-75
2022/07/06 15:39:57;;;;;;;1.67;1.50;;;;;;;24.03;34.90;102215.78;5044713;29;20065;-72
2022/07/06 15:42:29;;;;;;;7.10;2.03;;;;;;;23.88;35.99;102224.47;5044209;29;20538;-72
2022/07/06 15:58:25;;;;;;;7.40;2.25;;;;;;;23.55;36.81;102196.63;4863340;24;20064;-76
2022/07/06 16:00:57;;;;;;;4.43;1.50;;;;;;;23.46;37.31;102205.88;5039586;29;20034;-73
2022/07/06 16:06:11;;;;;;;2.95;1.85;;;;;;;23.13;37.81;102189.59;5660286;23;19971;-78
2022/07/06 16:08:42;;;;;;;6.55;1.70;;;;;;;23.06;38.15;102188.13;5043915;29;20046;-72
2022/07/06 16:11:14;;;;;;;9.80;2.20;;;;;;;22.97;38.26;102180.53;5039152;29;20044;-72
2022/07/06 16:13:46;;;;;;;5.47;1.90;;;;;;;23.30;38.33;102179.09;5032758;29;20471;-73
2022/07/06 16:16:18;;;;;;;4.50;1.60;;;;;;;23.66;38.06;102181.03;5051656;29;20038;-75
2022/07/06 16:18:52;;;;;;;;;;;;;;;24.06;37.27;102188.13;5054713;29;20052;-77
2022/07/06 16:21:24;;;;;;;5.35;2.05;;;;;;;23.22;38.74;102183.03;5051669;29;19960;-77
2022/07/06 16:23:56;;;;;;;4.70;2.25;;;;;;;22.82;40.12;102176.75;5050057;29;20239;-74
2022/07/06 16:26:27;;;;;;;7.43;1.70;;;;;;;22.57;41.02;102175.97;5030901;29;20148;-83
2022/07/06 16:29:01;;;;;;;6.10;2.58;;;;;;;22.26;41.73;102165.69;5048858;29;20033;-87
2022/07/06 16:31:32;;;;;;;5.80;2.00;;;;;;;21.90;43.29;102160.91;5032449;29;20034;-76
2022/07/06 16:34:03;;;;;;;8.03;2.73;;;;;;;21.87;42.97;102166.34;5048503;29;20470;-77
2022/07/06 16:36:41;;;;;;;6.27;2.63;;;;;;;21.75;43.54;102162.38;5047220;29;20145;-79
2022/07/06 16:39:12;;;;;;;8.18;2.55;;;;;;;22.00;43.53;102149.00;5049726;29;20109;-81
2022/07/06 16:41:43;;;;;;;9.13;2.90;;;;;;;22.12;43.18;102149.44;5048892;29;20018;-75
2022/07/06 16:44:23;;;;;;;7.27;2.70;;;;;;;22.04;43.40;102144.41;5049195;29;20030;-74
2022/07/06 16:46:54;;;;;;;7.18;2.70;;;;;;;21.89;43.84;102147.69;5016163;29;20340;-76
2022/07/06 16:49:25;;;;;;;6.67;2.57;;;;;;;21.83;44.50;102143.47;5047295;29;20041;-74
2022/07/06 16:51:57;;;;;;;7.73;3.10;;;;;;;22.00;44.76;102134.88;5048798;29;20177;-75
2022/07/06 16:54:28;;;;;;;7.27;2.50;;;;;;;21.96;44.38;102141.22;5049184;29;20068;-75
2022/07/06 16:57:01;;;;;;;7.60;2.67;;;;;;;21.90;44.74;102133.50;5044530;29;20139;-82
2022/07/06 16:59:35;;;;;;;10.27;2.58;;;;;;;22.17;44.77;102134.19;5047355;29;20146;-74
2022/07/06 17:02:07;;;;;;;10.07;2.72;;;;;;;22.26;44.36;102123.19;5027159;29;20064;-82
2022/07/06 17:04:38;;;;;;;5.53;2.93;;;;;;;22.10;44.80;102130.06;5046411;29;20030;-80
2022/07/06 17:07:10;;;;;;;9.30;2.90;;;;;;;22.32;44.63;102135.41;5050311;29;20143;-82
2022/07/06 17:09:42;;;;;;;7.00;2.30;;;;;;;22.07;45.73;102122.22;5059745;29;20038;-79
2022/07/06 17:12:13;;;;;;;8.50;2.67;;;;;;;22.00;45.93;102122.44;5064530;29;20107;-83
2022/07/06 17:14:44;;;;;;;6.40;2.43;;;;;;;22.12;45.52;102133.50;5065627;29;20026;-83
2022/07/06 17:17:16;;;;;;;8.47;2.47;;;;;;;22.32;45.45;102130.09;5034286;29;20072;-73
2022/07/06 17:19:47;;;;;;;7.03;2.43;;;;;;;22.31;44.87;102131.00;5045469;29;20030;-73
2022/07/06 17:22:19;;;;;;;6.97;3.23;;;;;;;22.14;45.36;102121.06;5043772;29;20070;-75
2022/07/06 17:24:50;;;;;;;7.88;3.55;;;;;;;22.06;45.97;102120.47;5045999;29;20026;-73
2022/07/06 17:27:22;;;;;;;4.07;2.10;;;;;;;22.35;45.30;102114.03;5044166;29;20034;-76
2022/07/06 17:29:56;;;;;;;5.47;2.40;;;;;;;22.15;45.68;102115.69;5045717;29;20175;-74
2022/07/06 17:32:27;;;;;;;10.90;2.78;;;;;;;21.97;46.42;102109.28;5044157;29;20022;-75
2022/07/06 17:34:59;;;;;;;9.33;3.00;;;;;;;21.94;46.84;102103.25;5046958;29;20034;-77
2022/07/06 17:37:31;;;;;;;9.83;2.70;;;;;;;22.11;46.96;102111.41;5048602;29;20026;-72
2022/07/06 17:40:03;;;;;;;7.40;2.95;;;;;;;22.01;47.13;102107.41;5049667;24;20061;-75
2022/07/06 17:42:35;;;;;;;7.30;2.78;;;;;;;22.22;46.92;102109.19;5036319;29;20064;-77
2022/07/06 17:45:06;;;;;;;6.82;2.63;;;;;;;21.82;47.07;102105.47;5043693;29;20022;-79
2022/07/06 17:47:38;;;;;;;7.22;2.88;;;;;;;21.80;47.29;102107.31;5042740;29;20462;-75
2022/07/06 17:50:09;;;;;;;5.40;2.58;;;;;;;21.78;47.42;102105.63;5043614;29;20030;-72
2022/07/06 17:52:48;;;;;;;6.00;2.13;;;;;;;21.74;47.50;102102.25;5027073;29;20097;-75
2022/07/06 17:55:20;;;;;;;8.43;2.80;;;;;;;21.83;47.36;102096.59;5043818;29;20508;-81
2022/07/06 17:57:51;;;;;;;5.23;2.40;;;;;;;21.89;47.17;102097.25;5034094;24;20050;-77
2022/07/06 18:00:23;;;;;;;5.33;2.60;;;;;;;21.87;47.09;102099.13;5040226;29;20118;-72
2022/07/06 18:02:54;;;;;;;7.73;2.97;;;;;;;21.55;47.75;102099.44;5037405;29;20447;-74
2022/07/06 18:05:27;;;;;;;7.30;2.77;;;;;;;21.54;47.73;102099.47;5037213;29;20042;-77
2022/07/06 18:08:00;;;;;;;9.10;2.90;;;;;;;21.70;47.93;102090.00;5042214;29;20084;-72
2022/07/06 18:10:33;;;;;;;11.43;3.15;;;;;;;21.87;47.58;102093.81;5042644;29;20036;-75
2022/07/06 18:13:04;;;;;;;;;;;;;;;22.15;46.94;102099.75;5043709;29;20123;-76
2022/07/06 18:15:36;;;;;;;10.30;3.17;;;;;;;21.75;48.18;102089.81;5044504;29;19989;-73
2022/07/06 18:18:07;;;;;;;9.63;3.00;;;;;;;21.62;48.63;102081.47;5048280;29;20049;-73
2022/07/06 18:20:38;;;;;;;6.40;3.03;;;;;;;21.70;48.58;102078.53;5029662;29;20354;-73
2022/07/06 18:23:10;;;;;;;6.00;2.90;;;;;;;21.70;48.49;102084.69;5048997;29;20037;-73
2022/07/06 18:25:41;;;;;;;9.37;3.90;;;;;;;21.62;48.21;102085.00;5047344;29;20030;-75
2022/07/06 18:28:16;;;;;;;6.73;2.77;;;;;;;21.77;48.17;102086.19;5046386;29;20486;-75
2022/07/06 18:30:50;;;;;;;7.25;3.33;;;;;;;21.81;47.92;102078.97;5050301;29;20087;-73
2022/07/06 18:33:23;;;;;;;7.70;2.72;;;;;;;21.68;48.18;102089.22;5049307;29;20054;-73
2022/07/06 18:35:55;;;;;;;8.50;3.55;;;;;;;21.48;48.11;102087.34;5048314;29;20049;-74
2022/07/06 18:38:27;;;;;;;7.60;2.70;;;;;;;21.31;49.08;102096.72;5044816;29;20061;-73
2022/07/06 18:40:59;;;;;;;8.17;2.93;;;;;;;21.23;48.78;102100.59;5048398;29;20030;-74
2022/07/06 18:43:30;;;;;;;8.23;2.63;;;;;;;21.06;48.82;102104.72;5045625;29;20033;-75
2022/07/06 18:46:03;;;;;;;8.23;2.80;;;;;;;20.83;49.77;102102.88;5045087;29;20316;-74
2022/07/06 18:48:34;;;;;;;9.68;2.95;;;;;;;20.54;50.60;102107.38;5044372;29;20022;-79
2022/07/06 18:51:06;;;;;;;5.47;2.67;;;;;;;20.45;51.12;102098.84;5025668;29;20045;-72
2022/07/06 18:53:38;;;;;;;6.50;2.70;;;;;;;20.78;49.88;102102.19;5010829;29;20309;-87
2022/07/06 18:56:13;;;;;;;8.90;2.90;;;;;;;20.53;49.99;102083.59;5024142;29;20033;-74
2022/07/06 18:58:48;;;;;;;5.55;2.60;;;;;;;20.52;50.35;102085.34;5026881;29;20129;-73
2022/07/06 19:01:20;;;;;;;9.48;2.85;;;;;;;20.38;49.35;102084.97;5025917;29;20121;-75
2022/07/06 19:03:51;;;;;;;7.90;3.23;;;;;;;20.69;50.19;102086.63;4994520;29;20558;-75
2022/07/06 19:06:22;;;;;;;11.30;3.93;;;;;;;20.49;48.61;102066.91;5024931;29;20475;-72
2022/07/06 19:08:56;;;;;;;8.03;3.70;;;;;;;20.46;48.44;102077.63;5012023;29;20038;-76
2022/07/06 19:11:28;;;;;;;8.00;4.97;;;;;;;20.24;48.95;102066.91;5044718;29;20103;-76
2022/07/06 19:14:00;;;;;;;11.55;4.97;;;;;;;20.17;49.46;102060.06;5040966;29;20030;-73
2022/07/06 19:16:31;;;;;;;10.23;4.72;;;;;;;20.15;49.76;102053.97;5026122;29;20489;-75
2022/07/06 19:19:03;;;;;;;7.00;5.00;;;;;;;20.19;49.08;102047.66;5039334;29;20030;-76
2022/07/06 19:21:35;;;;;;;9.38;5.45;;;;;;;20.06;49.91;102060.44;5027211;29;20027;-73
2022/07/06 19:24:06;;;;;;;8.53;5.33;;;;;;;19.96;49.83;102062.47;5006572;29;20503;-75
2022/07/06 19:26:38;;;;;;;7.40;4.00;;;;;;;20.13;49.41;102071.69;5022540;29;20087;-76
2022/07/06 19:29:10;;;;;;;10.70;3.67;;;;;;;20.03;49.43;102065.81;5023308;29;20034;-72
2022/07/06 19:31:41;;;;;;;9.60;2.43;;;;;;;19.88;49.59;102066.28;5022821;29;20042;-74
2022/07/06 19:34:12;;;;;;;11.37;2.60;;;;;;;19.94;49.83;102058.16;5007027;29;20053;-83
2022/07/06 19:36:44;;;;;;;9.47;2.30;;;;;;;19.90;49.98;102068.00;5022228;29;20030;-74
2022/07/06 19:39:16;;;;;;;4.00;1.55;;;;;;;19.86;50.47;102071.63;5022877;29;20042;-75
2022/07/06 19:41:48;;;;;;;9.13;1.70;;;;;;;19.83;50.86;102074.38;5024011;29;20037;-76
2022/07/06 19:44:20;;;;;;;3.83;1.77;;;;;;;19.57;52.46;102081.28;5022911;29;20046;-72
2022/07/06 19:46:51;;;;;;;3.33;1.20;;;;;;;19.57;53.08;102073.34;5023226;29;20023;-73
2022/07/06 19:49:22;;;;;;;3.40;1.17;;;;;;;19.51;53.89;102070.88;5022910;29;20079;-76
2022/07/06 19:51:54;;;;;;;2.63;1.10;;;;;;;19.43;55.14;102073.78;5021778;29;20478;-77
2022/07/06 19:54:25;;;;;;;3.00;1.00;;;;;;;19.39;55.61;102076.56;5042129;29;20026;-78
2022/07/06 19:56:56;;;;;;;6.43;1.17;;;;;;;19.43;55.93;102073.78;5041211;29;20049;-73
2022/07/06 19:59:30;;;;;;;1.53;1.07;;;;;;;19.29;57.07;102070.66;5041515;29;20454;-76
2022/07/06 20:02:01;;;;;;;3.00;1.23;;;;;;;19.24;57.28;102078.72;5041663;29;20026;-73
2022/07/06 20:04:33;;;;;;;2.55;1.10;;;;;;;19.19;58.19;102070.06;5022794;29;20505;-78
2022/07/06 20:07:04;;;;;;;1.47;0.90;;;;;;;19.15;58.44;102075.50;5040569;29;20022;-79
2022/07/06 20:09:36;;;;;;;2.00;0.77;;;;;;;19.25;58.36;102072.50;5041235;29;20033;-74
2022/07/06 20:12:08;;;;;;;4.25;0.88;;;;;;;19.22;58.35;102069.97;5040381;29;20022;-73
2022/07/06 20:14:39;;;;;;;1.65;0.80;;;;;;;19.27;58.62;102073.38;5040524;29;20030;-76
2022/07/06 20:17:11;;;;;;;1.60;0.90;;;;;;;19.19;58.88;102072.72;5040117;29;20038;-74
2022/07/06 20:19:42;;;;;;;1.53;1.27;;;;;;;19.28;58.62;102072.44;5039774;29;20856;-76
2022/07/06 20:22:13;;;;;;;2.57;1.10;;;;;;;19.38;58.96;102069.53;5032811;29;20382;-79
2022/07/06 20:24:45;;;;;;;3.50;1.53;;;;;;;19.16;59.72;102075.44;5019492;29;20053;-76
2022/07/06 20:27:16;;;;;;;2.43;1.20;;;;;;;19.17;59.83;102063.94;5039813;29;20034;-81
2022/07/06 20:29:47;;;;;;;1.93;1.37;;;;;;;19.18;60.44;102056.91;5040198;29;20090;-75
2022/07/06 20:32:19;;;;;;;2.47;1.40;;;;;;;19.18;60.60;102060.41;5040803;29;20038;-81
2022/07/06 20:34:50;;;;;;;2.63;1.23;;;;;;;19.02;61.33;102057.31;5042841;29;20037;-72
2022/07/06 20:37:22;;;;;;;2.37;1.43;;;;;;;19.14;61.15;102066.66;5041445;29;20042;-76
2022/07/06 20:39:53;;;;;;;3.13;1.20;;;;;;;18.95;62.28;102064.56;5042799;29;20036;-70
2022/07/06 20:42:24;;;;;;;1.90;1.30;;;;;;;18.93;62.31;102052.28;5041943;29;20140;-77
2022/07/06 20:44:56;;;;;;;2.33;1.33;;;;;;;18.99;62.95;102061.84;5023250;29;20034;-74
2022/07/06 20:47:27;;;;;;;4.47;1.50;;;;;;;18.81;63.24;102050.81;5043796;29;20192;-72
2022/07/06 20:49:59;;;;;;;2.23;1.47;;;;;;;18.70;64.14;102060.81;5040386;29;20518;-76
2022/07/06 20:52:30;;;;;;;2.17;1.33;;;;;;;18.65;64.60;102062.72;5036056;29;20580;-70
2022/07/06 20:55:02;;;;;;;3.30;1.40;;;;;;;18.80;64.13;102066.72;5032943;29;20022;-75
2022/07/06 20:57:34;;;;;;;3.22;1.73;;;;;;;18.71;64.77;102057.28;5036089;29;20057;-70
2022/07/06 21:00:06;;;;;;;3.83;1.55;;;;;;;18.58;65.77;102062.88;5041875;29;20029;-74
2022/07/06 21:02:37;;;;;;;3.25;1.95;;;;;;;18.57;66.66;102061.13;5042406;29;20047;-75
2022/07/06 21:05:09;;;;;;;2.53;1.60;;;;;;;18.61;66.25;102061.91;5041282;29;20033;-78
2022/07/06 21:07:40;;;;;;;3.07;2.00;;;;;;;18.59;66.92;102050.50;5041433;29;20285;-71
2022/07/06 21:10:12;;;;;;;3.60;2.20;;;;;;;18.46;67.42;102057.88;5011120;29;20034;-72
2022/07/06 21:12:43;;;;;;;5.37;2.07;;;;;;;18.46;67.91;102062.31;5037607;29;20072;-76
2022/07/06 21:15:14;;;;;;;7.27;2.20;;;;;;;18.31;68.38;102050.38;5044114;29;20034;-76
2022/07/06 21:17:46;;;;;;;4.17;2.00;;;;;;;18.35;68.22;102052.00;5042291;29;20450;-77
2022/07/06 21:20:17;;;;;;;4.83;2.40;;;;;;;18.39;68.83;102043.97;5044418;29;20022;-77
2022/07/06 21:22:50;;;;;;;3.83;2.30;;;;;;;18.35;69.11;102044.09;5046117;29;20478;-71
2022/07/06 21:25:21;;;;;;;5.45;2.45;;;;;;;18.21;69.49;102040.03;5047511;29;20026;-71
2022/07/06 21:27:53;;;;;;;8.33;2.33;;;;;;;18.17;69.94;102041.00;5043002;29;20379;-71
2022/07/06 21:30:24;;;;;;;6.05;2.30;;;;;;;18.14;70.07;102040.22;5043492;29;20074;-72
2022/07/06 21:32:56;;;;;;;3.10;2.23;;;;;;;18.14;70.36;102045.50;5042848;29;20026;-70
2022/07/06 21:35:27;;;;;;;5.23;2.80;;;;;;;17.97;71.23;102044.13;5042069;29;20041;-75
2022/07/06 21:37:59;;;;;;;4.53;2.03;;;;;;;17.99;70.79;102033.56;5042437;29;20060;-69
2022/07/06 21:40:30;;;;;;;3.23;2.20;;;;;;;17.94;71.01;102028.38;5042269;29;20279;-75
2022/07/06 21:43:02;;;;;;;3.20;1.97;;;;;;;17.93;71.28;102033.69;5040984;29;20086;-70
2022/07/06 21:45:34;;;;;;;4.97;2.30;;;;;;;17.75;71.96;102021.78;5014222;29;20034;-74
2022/07/06 21:48:06;;;;;;;4.20;2.20;;;;;;;17.83;71.96;102023.31;5026525;29;20053;-82
2022/07/06 21:50:37;;;;;;;6.43;2.33;;;;;;;17.79;71.83;102016.41;5026804;29;20118;-79
2022/07/06 21:53:10;;;;;;;4.40;2.20;;;;;;;17.77;72.34;102015.53;5027179;29;20034;-78
2022/07/06 21:55:42;;;;;;;7.32;2.40;;;;;;;17.72;72.23;102011.28;5027349;29;20386;-71
2022/07/06 21:58:13;;;;;;;5.73;2.37;;;;;;;17.73;72.29;102010.41;5029850;29;20046;-85
2022/07/06 22:00:45;;;;;;;3.80;2.23;;;;;;;17.86;71.98;102020.59;5046366;29;20038;-74
2022/07/06 22:03:17;;;;;;;3.97;2.63;;;;;;;17.91;71.89;102020.53;5046931;29;20156;-81
2022/07/06 22:05:48;;;;;;;3.90;2.53;;;;;;;17.81;71.89;102016.34;5045857;29;20120;-71
2022/07/06 22:08:21;;;;;;;4.53;2.90;;;;;;;17.71;72.42;102020.97;5046097;29;20022;-71
2022/07/06 22:10:54;;;;;;;3.25;2.55;;;;;;;17.62;72.76;102031.72;5045762;29;20026;-72
2022/07/06 22:13:41;;;;;;;5.05;2.40;;;;;;;17.78;72.51;102022.56;5032662;29;20041;-77
2022/07/06 22:16:15;;;;;;;3.17;2.30;;;;;;;17.83;72.68;102010.13;5063231;29;20041;-73
2022/07/06 22:18:50;;;;;;;3.80;2.20;;;;;;;17.83;72.31;102015.41;5062317;29;20037;-74
2022/07/06 22:21:22;;;;;;;4.95;2.42;;;;;;;17.77;72.23;102015.53;5035238;29;20120;-83
2022/07/06 22:23:56;;;;;;;3.58;2.20;;;;;;;17.75;72.75;102013.84;5024488;29;20057;-82
2022/07/06 22:26:27;;;;;;;3.78;2.50;;;;;;;17.73;72.82;102013.03;5008123;29;20490;-78
2022/07/06 22:28:59;;;;;;;2.93;2.50;;;;;;;17.61;73.28;102003.63;5024335;29;20160;-74
2022/07/06 22:31:30;;;;;;;8.23;2.77;;;;;;;17.66;73.29;102000.00;5024147;29;20062;-76
2022/07/06 22:34:02;;;;;;;5.90;2.70;;;;;;;17.56;73.63;102005.50;5024500;29;20089;-75
2022/07/06 22:36:34;;;;;;;3.67;2.85;;;;;;;17.58;73.91;101993.13;5024179;29;20359;-75
2022/07/06 22:39:06;;;;;;;4.70;3.37;;;;;;;17.62;73.73;102000.09;5024126;29;20416;-72
2022/07/06 22:41:37;;;;;;;5.93;3.07;;;;;;;17.59;74.02;101989.63;5023764;29;20105;-73
2022/07/06 22:44:09;;;;;;;7.63;3.13;;;;;;;17.59;74.36;101987.84;5024127;29;20288;-71
2022/07/06 22:46:41;;;;;;;5.15;3.63;;;;;;;17.56;74.78;101987.03;5020251;29;20256;-73
2022/07/06 22:49:12;;;;;;;9.10;4.07;;;;;;;17.59;74.94;101986.97;5024054;29;20037;-77
2022/07/06 22:51:44;;;;;;;9.23;5.47;;;;;;;17.62;75.10;101979.00;5023837;29;20054;-70
2022/07/06 22:54:15;;;;;;;5.43;4.50;;;;;;;17.57;75.31;101980.88;5038075;29;20022;-76
2022/07/06 22:56:47;;;;;;;7.13;4.90;;;;;;;17.50;75.70;101981.00;5044656;29;20151;-74
2022/07/06 22:59:18;;;;;;;7.03;4.60;;;;;;;17.48;75.95;101976.66;5042320;29;20036;-78
2022/07/06 23:01:51;;;;;;;7.30;5.53;;;;;;;17.52;75.98;101986.25;5025540;29;20042;-73
2022/07/06 23:04:22;;;;;;;7.05;4.75;;;;;;;17.62;75.66;101979.84;5023825;29;20039;-72
2022/07/06 23:06:54;;;;;;;5.35;4.72;;;;;;;17.60;75.37;101971.13;5023584;29;20463;-72
2022/07/06 23:09:25;;;;;;;5.47;4.73;;;;;;;17.54;75.85;101965.13;5022284;29;20042;-75
2022/07/06 23:11:59;;;;;;;6.60;5.10;;;;;;;17.50;76.62;101965.19;5023263;29;20031;-75
2022/07/06 23:14:30;;;;;;;9.25;5.25;;;;;;;17.55;76.53;101961.56;5024087;29;20033;-76
2022/07/06 23:17:02;;;;;;;7.47;5.50;;;;;;;17.55;76.80;101962.47;5023343;29;20038;-79
2022/07/06 23:19:37;;;;;;;6.50;5.40;;;;;;;17.57;76.83;101960.66;5006861;29;20209;-74
2022/07/06 23:22:08;;;;;;;9.38;5.80;;;;;;;17.44;77.38;101956.56;5023884;29;20405;-73
2022/07/06 23:24:42;;;;;;;8.10;6.07;;;;;;;17.48;77.33;101951.19;5023930;29;20027;-74
2022/07/06 23:27:13;;;;;;;9.30;6.53;;;;;;;17.52;77.29;101949.34;5034775;29;20026;-76
2022/07/06 23:29:45;;;;;;;9.37;6.73;;;;;;;17.49;77.76;101952.06;5042225;29;20026;-80
2022/07/06 23:32:16;;;;;;;10.13;6.27;;;;;;;17.53;77.60;101952.84;5042420;29;20030;-74
2022/07/06 23:34:48;;;;;;;8.77;6.90;;;;;;;17.49;77.67;101952.91;5042903;29;20094;-71
2022/07/06 23:37:20;;;;;;;7.77;6.93;;;;;;;17.52;77.75;101951.97;5041892;29;20489;-70
2022/07/06 23:39:51;;;;;;;10.17;6.80;;;;;;;17.44;78.04;101949.50;5025055;29;20518;-74
2022/07/06 23:42:23;;;;;;;11.53;6.97;;;;;;;17.44;78.50;101944.25;5040764;29;20022;-74
2022/07/06 23:44:55;;;;;;;;;;;;;;;17.53;76.57;101943.16;5041869;29;20310;-72
2022/07/06 23:47:32;;;;;;;7.95;6.57;;;;;;;17.44;78.29;101935.47;5041813;29;19944;-77
2022/07/06 23:50:04;;;;;;;9.68;6.88;;;;;;;17.45;78.36;101924.91;5041801;29;20048;-77
2022/07/06 23:52:36;;;;;;;9.18;6.22;;;;;;;17.47;78.58;101914.31;5041315;29;20029;-73
2022/07/06 23:55:08;;;;;;;8.87;6.20;;;;;;;17.45;78.57;101908.19;5022751;29;20038;-72
2022/07/06 23:57:39;;;;;;;7.88;5.68;;;;;;;17.50;78.02;101901.06;5022246;29;20078;-71
